dimanche 2 mars 2014

ALERTE SPOTTING 02/03/14

744 EC-KQC Pullmantur Air
  PLM64121/PLM710P  08h50/10h50

77W F-GZNC Air France
  arv AF373Y  10h40

IL9 CU-T1251 Cubana
   CU444/CU445  16h55/19h00

763 CS-TFT Euro Atlantic
  AT774/AT775  13h15/14h30

73H TC-AZP Pegasus (sticker Asia)
  PC401/PC402  13h20/14h10

Manque les prévisions/immats UX / BE / AZ / TP / BA / AH
*** Heures en Local Time **
Prévisions soumises à modifications de dernières minute. Voir le log du mois pour la version 'définitive' de la journée: http://www.airkalo.com/ORLYAVIATION/Logdumois.html

le TAF de la journée:



METAR: COR LFPO 020400Z 22002KT CAVOK M01/M02 Q1004 TEMPO 3000 BR=
TAF LONG: AMD LFPO 012348Z 0200/0306 18004KT 8000 NSC BECMG 0201/0204 3000
BR PROB30 TEMPO 0204/0209 16005KT 0600 BCFG VV/// BECMG 0209/0212
19012KT 9999 SCT030 BECMG 0221/0223 17015KT -RA SCT008 BKN017 TEMPO
0300/0303 17015G30KT 4000 RA BKN008=